sensor_id;sensor_type;location;lat;lon;timestamp;pressure;altitude;pressure_sealevel;temperature;humidity
13581;BME280;6861;46.170;7.222;2022-09-20T00:00:34;96309.22;;;16.66;40.27
13581;BME280;6861;46.170;7.222;2022-09-20T00:03:01;96312.03;;;16.56;41.08
13581;BME280;6861;46.170;7.222;2022-09-20T00:05:28;96318.41;;;16.41;41.32
13581;BME280;6861;46.170;7.222;2022-09-20T00:07:55;96317.81;;;16.30;41.38
13581;BME280;6861;46.170;7.222;2022-09-20T00:10:24;96321.22;;;16.17;41.52
13581;BME280;6861;46.170;7.222;2022-09-20T00:12:51;96323.44;;;16.10;41.97
13581;BME280;6861;46.170;7.222;2022-09-20T00:15:18;96324.13;;;16.02;42.50
13581;BME280;6861;46.170;7.222;2022-09-20T00:17:45;96324.69;;;15.99;42.51
13581;BME280;6861;46.170;7.222;2022-09-20T00:20:12;96327.72;;;15.92;42.63
13581;BME280;6861;46.170;7.222;2022-09-20T00:22:39;96323.88;;;15.85;42.61
13581;BME280;6861;46.170;7.222;2022-09-20T00:25:07;96320.03;;;15.77;42.87
13581;BME280;6861;46.170;7.222;2022-09-20T00:27:35;96331.88;;;15.80;42.77
13581;BME280;6861;46.170;7.222;2022-09-20T00:30:02;96326.50;;;15.85;42.62
13581;BME280;6861;46.170;7.222;2022-09-20T00:32:30;96323.78;;;15.90;42.53
13581;BME280;6861;46.170;7.222;2022-09-20T00:34:57;96321.16;;;15.90;42.52
13581;BME280;6861;46.170;7.222;2022-09-20T00:37:37;96327.00;;;15.87;42.78
13581;BME280;6861;46.170;7.222;2022-09-20T00:40:07;96325.53;;;15.81;43.11
13581;BME280;6861;46.170;7.222;2022-09-20T00:42:36;96319.41;;;15.66;43.28
13581;BME280;6861;46.170;7.222;2022-09-20T00:45:04;96319.34;;;15.53;43.46
13581;BME280;6861;46.170;7.222;2022-09-20T00:47:37;96323.34;;;15.50;43.83
13581;BME280;6861;46.170;7.222;2022-09-20T00:50:20;96314.59;;;15.36;43.66
13581;BME280;6861;46.170;7.222;2022-09-20T00:52:53;96327.28;;;15.34;43.93
13581;BME280;6861;46.170;7.222;2022-09-20T00:55:24;96325.50;;;15.29;43.97
13581;BME280;6861;46.170;7.222;2022-09-20T00:57:53;96326.28;;;15.30;43.61
13581;BME280;6861;46.170;7.222;2022-09-20T01:00:20;96334.13;;;15.35;43.76
13581;BME280;6861;46.170;7.222;2022-09-20T01:02:51;96328.22;;;15.43;43.80
13581;BME280;6861;46.170;7.222;2022-09-20T01:05:20;96337.53;;;15.54;43.44
13581;BME280;6861;46.170;7.222;2022-09-20T01:07:49;96337.38;;;15.64;43.43
13581;BME280;6861;46.170;7.222;2022-09-20T01:10:17;96342.50;;;15.74;42.88
13581;BME280;6861;46.170;7.222;2022-09-20T01:12:44;96336.06;;;15.81;43.40
13581;BME280;6861;46.170;7.222;2022-09-20T01:15:14;96339.41;;;15.86;42.89
13581;BME280;6861;46.170;7.222;2022-09-20T01:17:46;96343.06;;;15.90;42.92
13581;BME280;6861;46.170;7.222;2022-09-20T01:20:19;96343.53;;;15.92;42.64
13581;BME280;6861;46.170;7.222;2022-09-20T01:23:05;96338.47;;;15.96;43.09
13581;BME280;6861;46.170;7.222;2022-09-20T01:25:53;96340.81;;;15.97;43.29
13581;BME280;6861;46.170;7.222;2022-09-20T01:28:25;96341.91;;;15.96;43.25
13581;BME280;6861;46.170;7.222;2022-09-20T01:30:58;96339.53;;;15.95;42.61
13581;BME280;6861;46.170;7.222;2022-09-20T01:33:37;96342.56;;;15.88;42.99
13581;BME280;6861;46.170;7.222;2022-09-20T01:36:08;96339.13;;;15.88;43.39
13581;BME280;6861;46.170;7.222;2022-09-20T01:38:43;96346.75;;;15.89;43.04
13581;BME280;6861;46.170;7.222;2022-09-20T01:41:17;96343.34;;;15.89;43.15
13581;BME280;6861;46.170;7.222;2022-09-20T01:43:52;96344.91;;;15.90;43.19
13581;BME280;6861;46.170;7.222;2022-09-20T01:46:28;96341.78;;;15.88;42.98
13581;BME280;6861;46.170;7.222;2022-09-20T01:49:09;96341.28;;;15.86;43.32
13581;BME280;6861;46.170;7.222;2022-09-20T01:52:02;96346.63;;;15.81;43.38
13581;BME280;6861;46.170;7.222;2022-09-20T02:01:00;96344.81;;;15.62;43.89
13581;BME280;6861;46.170;7.222;2022-09-20T02:04:01;96348.03;;;15.59;44.26
13581;BME280;6861;46.170;7.222;2022-09-20T02:06:51;96346.75;;;15.57;43.81
13581;BME280;6861;46.170;7.222;2022-09-20T02:12:40;96349.22;;;15.48;44.51
13581;BME280;6861;46.170;7.222;2022-09-20T02:15:33;96345.53;;;15.49;44.10
13581;BME280;6861;46.170;7.222;2022-09-20T02:18:12;96351.88;;;15.48;44.08
13581;BME280;6861;46.170;7.222;2022-09-20T02:20:48;96346.59;;;15.48;43.84
13581;BME280;6861;46.170;7.222;2022-09-20T02:23:33;96349.81;;;15.45;44.31
13581;BME280;6861;46.170;7.222;2022-09-20T02:26:22;96346.16;;;15.41;43.85
13581;BME280;6861;46.170;7.222;2022-09-20T02:28:54;96340.97;;;15.36;44.19
13581;BME280;6861;46.170;7.222;2022-09-20T02:31:31;96342.66;;;15.27;44.24
13581;BME280;6861;46.170;7.222;2022-09-20T02:34:39;96334.81;;;15.22;44.41
13581;BME280;6861;46.170;7.222;2022-09-20T02:40:19;96340.88;;;15.22;44.16
13581;BME280;6861;46.170;7.222;2022-09-20T02:42:57;96337.19;;;15.23;44.05
13581;BME280;6861;46.170;7.222;2022-09-20T02:45:29;96337.19;;;15.23;44.04
13581;BME280;6861;46.170;7.222;2022-09-20T02:48:02;96337.97;;;15.24;44.07
13581;BME280;6861;46.170;7.222;2022-09-20T02:50:39;96336.41;;;15.23;44.32
13581;BME280;6861;46.170;7.222;2022-09-20T02:53:19;96329.63;;;15.17;44.17
13581;BME280;6861;46.170;7.222;2022-09-20T02:56:00;96337.09;;;15.09;44.32
13581;BME280;6861;46.170;7.222;2022-09-20T02:58:39;96334.53;;;15.04;44.25
13581;BME280;6861;46.170;7.222;2022-09-20T03:01:15;96334.03;;;15.02;44.14
13581;BME280;6861;46.170;7.222;2022-09-20T03:03:51;96337.72;;;15.01;44.11
13581;BME280;6861;46.170;7.222;2022-09-20T03:06:27;96338.78;;;15.00;44.28
13581;BME280;6861;46.170;7.222;2022-09-20T03:09:03;96335.09;;;15.01;44.02
13581;BME280;6861;46.170;7.222;2022-09-20T03:11:37;96337.72;;;15.01;44.65
13581;BME280;6861;46.170;7.222;2022-09-20T03:14:12;96339.59;;;15.01;44.61
13581;BME280;6861;46.170;7.222;2022-09-20T03:16:58;96340.38;;;15.01;44.34
13581;BME280;6861;46.170;7.222;2022-09-20T03:19:47;96343.78;;;15.02;44.52
13581;BME280;6861;46.170;7.222;2022-09-20T03:22:27;96337.72;;;15.01;44.35
13581;BME280;6861;46.170;7.222;2022-09-20T03:25:16;96331.97;;;14.99;44.65
13581;BME280;6861;46.170;7.222;2022-09-20T03:27:56;96333.38;;;14.92;44.51
13581;BME280;6861;46.170;7.222;2022-09-20T03:30:40;96334.72;;;14.89;44.56
13581;BME280;6861;46.170;7.222;2022-09-20T03:33:17;96336.34;;;14.85;44.63
13581;BME280;6861;46.170;7.222;2022-09-20T03:36:00;96337.41;;;14.84;44.98
13581;BME280;6861;46.170;7.222;2022-09-20T03:38:52;96331.09;;;14.85;44.38
13581;BME280;6861;46.170;7.222;2022-09-20T03:41:42;96336.34;;;14.85;44.83
13581;BME280;6861;46.170;7.222;2022-09-20T03:44:38;96332.72;;;14.81;44.41
13581;BME280;6861;46.170;7.222;2022-09-20T03:47:20;96339.59;;;14.77;44.68
13581;BME280;6861;46.170;7.222;2022-09-20T03:50:06;96335.22;;;14.72;45.09
13581;BME280;6861;46.170;7.222;2022-09-20T03:52:59;96339.47;;;14.68;44.61
13581;BME280;6861;46.170;7.222;2022-09-20T03:55:51;96341.88;;;14.65;44.58
13581;BME280;6861;46.170;7.222;2022-09-20T03:58:38;96334.53;;;14.62;45.11
13581;BME280;6861;46.170;7.222;2022-09-20T04:01:31;96344.00;;;14.63;45.01
13581;BME280;6861;46.170;7.222;2022-09-20T04:04:05;96340.38;;;14.59;45.29
13581;BME280;6861;46.170;7.222;2022-09-20T04:09:54;96349.94;;;14.50;45.44
13581;BME280;6861;46.170;7.222;2022-09-20T04:12:31;96347.88;;;14.47;45.30
13581;BME280;6861;46.170;7.222;2022-09-20T04:15:13;96356.84;;;14.46;45.51
13581;BME280;6861;46.170;7.222;2022-09-20T04:17:48;96357.13;;;14.39;45.20
13581;BME280;6861;46.170;7.222;2022-09-20T04:20:23;96359.53;;;14.35;45.66
13581;BME280;6861;46.170;7.222;2022-09-20T04:22:55;96357.75;;;14.31;46.10
13581;BME280;6861;46.170;7.222;2022-09-20T04:25:28;96355.38;;;14.29;46.25
13581;BME280;6861;46.170;7.222;2022-09-20T04:28:01;96350.66;;;14.26;45.99
13581;BME280;6861;46.170;7.222;2022-09-20T04:30:34;96362.53;;;14.24;46.01
13581;BME280;6861;46.170;7.222;2022-09-20T04:33:14;96371.53;;;14.18;46.42
13581;BME280;6861;46.170;7.222;2022-09-20T04:35:51;96363.00;;;14.02;46.26
13581;BME280;6861;46.170;7.222;2022-09-20T04:38:39;96364.06;;;14.01;46.45
13581;BME280;6861;46.170;7.222;2022-09-20T04:41:20;96368.53;;;14.00;45.85
13581;BME280;6861;46.170;7.222;2022-09-20T04:47:09;96370.41;;;13.95;45.89
13581;BME280;6861;46.170;7.222;2022-09-20T04:55:53;96379.00;;;13.76;46.80
13581;BME280;6861;46.170;7.222;2022-09-20T04:58:48;96384.81;;;13.73;46.88
13581;BME280;6861;46.170;7.222;2022-09-20T05:05:06;96390.63;;;13.70;46.17
13581;BME280;6861;46.170;7.222;2022-09-20T05:11:16;96386.16;;;13.71;47.07
13581;BME280;6861;46.170;7.222;2022-09-20T05:14:06;96394.84;;;13.66;46.89
13581;BME280;6861;46.170;7.222;2022-09-20T05:16:49;96388.31;;;13.59;47.58
13581;BME280;6861;46.170;7.222;2022-09-20T05:19:30;96386.50;;;13.54;46.68
13581;BME280;6861;46.170;7.222;2022-09-20T05:25:07;96399.22;;;13.42;47.84
13581;BME280;6861;46.170;7.222;2022-09-20T05:27:43;96397.16;;;13.34;47.89
13581;BME280;6861;46.170;7.222;2022-09-20T05:30:19;96397.97;;;13.29;47.44
13581;BME280;6861;46.170;7.222;2022-09-20T05:32:53;96402.44;;;13.24;48.05
13581;BME280;6861;46.170;7.222;2022-09-20T05:35:25;96404.56;;;13.22;48.11
13581;BME280;6861;46.170;7.222;2022-09-20T05:38:00;96409.28;;;13.25;48.00
13581;BME280;6861;46.170;7.222;2022-09-20T05:40:39;96414.25;;;13.31;48.14
13581;BME280;6861;46.170;7.222;2022-09-20T05:43:20;96419.75;;;13.35;48.06
13581;BME280;6861;46.170;7.222;2022-09-20T05:46:01;96419.75;;;13.35;48.23
13581;BME280;6861;46.170;7.222;2022-09-20T05:48:37;96421.34;;;13.31;48.53
13581;BME280;6861;46.170;7.222;2022-09-20T05:51:11;96427.16;;;13.23;48.34
13581;BME280;6861;46.170;7.222;2022-09-20T05:53:54;96425.06;;;13.20;48.17
13581;BME280;6861;46.170;7.222;2022-09-20T05:56:33;96417.72;;;13.17;48.67
13581;BME280;6861;46.170;7.222;2022-09-20T05:59:16;96424.78;;;13.21;48.38
13581;BME280;6861;46.170;7.222;2022-09-20T06:01:57;96427.41;;;13.26;48.57
13581;BME280;6861;46.170;7.222;2022-09-20T06:04:33;96428.44;;;13.30;48.36
13581;BME280;6861;46.170;7.222;2022-09-20T06:07:10;96432.38;;;13.33;48.30
13581;BME280;6861;46.170;7.222;2022-09-20T06:10:04;96432.38;;;13.33;47.79
13581;BME280;6861;46.170;7.222;2022-09-20T06:12:48;96437.63;;;13.33;48.48
13581;BME280;6861;46.170;7.222;2022-09-20T06:15:25;96429.22;;;13.31;48.00
13581;BME280;6861;46.170;7.222;2022-09-20T06:18:01;96436.34;;;13.25;47.80
13581;BME280;6861;46.170;7.222;2022-09-20T06:20:37;96435.56;;;13.14;48.78
13581;BME280;6861;46.170;7.222;2022-09-20T06:23:10;96431.91;;;13.05;48.09
13581;BME280;6861;46.170;7.222;2022-09-20T06:25:41;96431.66;;;13.02;48.13
13581;BME280;6861;46.170;7.222;2022-09-20T06:28:16;96430.66;;;12.98;49.30
13581;BME280;6861;46.170;7.222;2022-09-20T06:30:46;96430.97;;;12.86;49.28
13581;BME280;6861;46.170;7.222;2022-09-20T06:33:15;96436.25;;;12.71;49.44
13581;BME280;6861;46.170;7.222;2022-09-20T06:35:45;96427.34;;;12.57;49.94
13581;BME280;6861;46.170;7.222;2022-09-20T06:38:42;96428.16;;;12.47;50.97
13581;BME280;6861;46.170;7.222;2022-09-20T06:41:31;96428.69;;;12.44;50.54
13581;BME280;6861;46.170;7.222;2022-09-20T06:44:02;96429.72;;;12.38;51.27
13581;BME280;6861;46.170;7.222;2022-09-20T06:46:32;96425.00;;;12.30;51.45
13581;BME280;6861;46.170;7.222;2022-09-20T06:49:00;96425.78;;;12.30;51.41
13581;BME280;6861;46.170;7.222;2022-09-20T06:51:32;96430.53;;;12.33;50.96
13581;BME280;6861;46.170;7.222;2022-09-20T06:53:59;96422.66;;;12.33;50.59
13581;BME280;6861;46.170;7.222;2022-09-20T06:56:30;96419.75;;;12.40;51.69
13581;BME280;6861;46.170;7.222;2022-09-20T06:58:58;96420.53;;;12.51;50.69
13581;BME280;6861;46.170;7.222;2022-09-20T07:01:26;96416.31;;;12.65;50.73
13581;BME280;6861;46.170;7.222;2022-09-20T07:03:53;96415.75;;;12.73;49.97
13581;BME280;6861;46.170;7.222;2022-09-20T07:06:20;96413.66;;;12.80;50.34
13581;BME280;6861;46.170;7.222;2022-09-20T07:08:47;96411.53;;;12.87;50.32
13581;BME280;6861;46.170;7.222;2022-09-20T07:11:15;96417.78;;;12.96;50.05
13581;BME280;6861;46.170;7.222;2022-09-20T07:13:43;96408.53;;;13.04;49.91
13581;BME280;6861;46.170;7.222;2022-09-20T07:16:12;96415.88;;;13.12;50.12
13581;BME280;6861;46.170;7.222;2022-09-20T07:18:42;96411.16;;;13.19;49.45
13581;BME280;6861;46.170;7.222;2022-09-20T07:21:10;96415.84;;;13.22;49.61
13581;BME280;6861;46.170;7.222;2022-09-20T07:23:37;96409.81;;;13.22;49.43
13581;BME280;6861;46.170;7.222;2022-09-20T07:26:04;96410.34;;;13.24;49.46
13581;BME280;6861;46.170;7.222;2022-09-20T07:28:33;96407.94;;;13.27;49.72
13581;BME280;6861;46.170;7.222;2022-09-20T07:31:00;96406.28;;;13.47;49.70
13581;BME280;6861;46.170;7.222;2022-09-20T07:33:26;96399.03;;;13.72;49.22
13581;BME280;6861;46.170;7.222;2022-09-20T07:35:55;96406.03;;;14.16;48.79
13581;BME280;6861;46.170;7.222;2022-09-20T07:38:22;96402.75;;;14.63;48.79
13581;BME280;6861;46.170;7.222;2022-09-20T07:40:53;96402.16;;;15.14;48.26
13581;BME280;6861;46.170;7.222;2022-09-20T07:43:20;96403.84;;;15.66;47.69
13581;BME280;6861;46.170;7.222;2022-09-20T07:45:49;96406.78;;;16.16;46.83
13581;BME280;6861;46.170;7.222;2022-09-20T07:48:20;96398.06;;;16.62;46.31
13581;BME280;6861;46.170;7.222;2022-09-20T07:50:50;96406.81;;;17.03;45.73
13581;BME280;6861;46.170;7.222;2022-09-20T07:53:19;96404.69;;;17.42;44.63
13581;BME280;6861;46.170;7.222;2022-09-20T07:56:03;96400.09;;;17.83;44.01
13581;BME280;6861;46.170;7.222;2022-09-20T07:58:32;96400.16;;;18.14;43.75
13581;BME280;6861;46.170;7.222;2022-09-20T08:01:01;96411.22;;;18.39;42.69
13581;BME280;6861;46.170;7.222;2022-09-20T08:03:29;96403.84;;;18.58;42.64
13581;BME280;6861;46.170;7.222;2022-09-20T08:06:00;96411.75;;;18.80;42.44
13581;BME280;6861;46.170;7.222;2022-09-20T08:08:30;96404.03;;;19.01;41.61
13581;BME280;6861;46.170;7.222;2022-09-20T08:11:01;96405.00;;;19.22;41.17
13581;BME280;6861;46.170;7.222;2022-09-20T08:13:29;96407.06;;;19.43;40.61
13581;BME280;6861;46.170;7.222;2022-09-20T08:16:00;96407.44;;;19.58;40.17
13581;BME280;6861;46.170;7.222;2022-09-20T08:18:28;96407.00;;;19.74;39.94
13581;BME280;6861;46.170;7.222;2022-09-20T08:20:55;96399.19;;;19.86;39.46
13581;BME280;6861;46.170;7.222;2022-09-20T08:23:21;96407.28;;;19.98;39.05
13581;BME280;6861;46.170;7.222;2022-09-20T08:25:50;96401.63;;;20.08;38.58
13581;BME280;6861;46.170;7.222;2022-09-20T08:28:17;96398.97;;;20.17;38.69
13581;BME280;6861;46.170;7.222;2022-09-20T08:30:43;96390.84;;;20.22;38.20
13581;BME280;6861;46.170;7.222;2022-09-20T08:33:10;96395.81;;;20.32;38.15
13581;BME280;6861;46.170;7.222;2022-09-20T08:35:37;96393.19;;;20.41;37.90
13581;BME280;6861;46.170;7.222;2022-09-20T08:38:04;96398.16;;;20.51;37.51
13581;BME280;6861;46.170;7.222;2022-09-20T08:40:32;96401.56;;;20.60;37.48
13581;BME280;6861;46.170;7.222;2022-09-20T08:43:02;96399.66;;;20.69;37.03
13581;BME280;6861;46.170;7.222;2022-09-20T08:45:29;96397.75;;;20.78;36.55
13581;BME280;6861;46.170;7.222;2022-09-20T08:47:57;96398.16;;;20.89;36.48
13581;BME280;6861;46.170;7.222;2022-09-20T08:50:26;96390.13;;;20.98;36.33
13581;BME280;6861;46.170;7.222;2022-09-20T08:52:55;96387.44;;;21.06;36.26
13581;BME280;6861;46.170;7.222;2022-09-20T08:55:24;96390.81;;;21.15;36.02
13581;BME280;6861;46.170;7.222;2022-09-20T08:57:57;96378.59;;;21.23;36.01
13581;BME280;6861;46.170;7.222;2022-09-20T09:00:29;96386.41;;;21.28;36.40
13581;BME280;6861;46.170;7.222;2022-09-20T09:02:59;96386.47;;;21.40;36.01
13581;BME280;6861;46.170;7.222;2022-09-20T09:05:32;96373.88;;;21.49;36.23
13581;BME280;6861;46.170;7.222;2022-09-20T09:08:02;96371.28;;;21.62;35.96
13581;BME280;6861;46.170;7.222;2022-09-20T09:10:35;96364.78;;;21.71;35.32
13581;BME280;6861;46.170;7.222;2022-09-20T09:13:04;96364.03;;;21.83;35.40
13581;BME280;6861;46.170;7.222;2022-09-20T09:15:34;96368.50;;;21.91;35.14
13581;BME280;6861;46.170;7.222;2022-09-20T09:18:03;96350.56;;;22.00;35.24
13581;BME280;6861;46.170;7.222;2022-09-20T09:20:39;96353.97;;;22.09;34.49
13581;BME280;6861;46.170;7.222;2022-09-20T09:23:20;96347.75;;;22.17;34.77
13581;BME280;6861;46.170;7.222;2022-09-20T09:25:51;96344.69;;;22.28;34.68
13581;BME280;6861;46.170;7.222;2022-09-20T09:28:22;96341.81;;;22.33;34.31
13581;BME280;6861;46.170;7.222;2022-09-20T09:30:51;96339.16;;;22.45;34.08
13581;BME280;6861;46.170;7.222;2022-09-20T09:33:24;96331.81;;;22.54;33.85
13581;BME280;6861;46.170;7.222;2022-09-20T09:35:54;96334.38;;;22.63;34.08
13581;BME280;6861;46.170;7.222;2022-09-20T09:38:25;96319.38;;;22.70;33.80
13581;BME280;6861;46.170;7.222;2022-09-20T09:40:53;96320.38;;;22.78;33.82
13581;BME280;6861;46.170;7.222;2022-09-20T09:43:22;96312.28;;;22.86;33.25
13581;BME280;6861;46.170;7.222;2022-09-20T09:45:53;96308.28;;;22.93;32.89
13581;BME280;6861;46.170;7.222;2022-09-20T09:48:24;96308.50;;;23.00;32.97
13581;BME280;6861;46.170;7.222;2022-09-20T09:51:07;96301.13;;;23.09;33.05
13581;BME280;6861;46.170;7.222;2022-09-20T09:53:35;96296.34;;;23.14;33.23
13581;BME280;6861;46.170;7.222;2022-09-20T09:56:35;96295.09;;;23.24;32.70
13581;BME280;6861;46.170;7.222;2022-09-20T09:59:19;96293.31;;;23.28;32.39
13581;BME280;6861;46.170;7.222;2022-09-20T10:01:59;96289.97;;;23.31;32.99
13581;BME280;6861;46.170;7.222;2022-09-20T10:04:34;96284.72;;;23.35;32.58
13581;BME280;6861;46.170;7.222;2022-09-20T10:07:09;96284.03;;;23.38;32.63
13581;BME280;6861;46.170;7.222;2022-09-20T10:09:53;96281.09;;;23.43;32.52
13581;BME280;6861;46.170;7.222;2022-09-20T10:12:30;96272.84;;;23.48;32.39
13581;BME280;6861;46.170;7.222;2022-09-20T10:15:09;96270.28;;;23.51;32.13
13581;BME280;6861;46.170;7.222;2022-09-20T10:17:49;96261.63;;;23.54;32.25
13581;BME280;6861;46.170;7.222;2022-09-20T10:20:35;96264.38;;;23.58;32.17
13581;BME280;6861;46.170;7.222;2022-09-20T10:23:18;96246.47;;;23.59;32.37
13581;BME280;6861;46.170;7.222;2022-09-20T10:25:51;96242.00;;;23.63;32.64
13581;BME280;6861;46.170;7.222;2022-09-20T10:28:31;96247.09;;;23.68;32.36
13581;BME280;6861;46.170;7.222;2022-09-20T10:31:06;96233.13;;;23.74;32.50
13581;BME280;6861;46.170;7.222;2022-09-20T10:33:43;96232.53;;;23.81;32.18
13581;BME280;6861;46.170;7.222;2022-09-20T10:36:22;96226.25;;;23.89;32.37
13581;BME280;6861;46.170;7.222;2022-09-20T10:38:57;96229.13;;;23.96;32.38
13581;BME280;6861;46.170;7.222;2022-09-20T10:41:36;96219.72;;;24.02;31.99
13581;BME280;6861;46.170;7.222;2022-09-20T10:44:38;96214.19;;;24.11;32.06
13581;BME280;6861;46.170;7.222;2022-09-20T10:47:13;96214.38;;;24.18;31.98
13581;BME280;6861;46.170;7.222;2022-09-20T10:49:48;96212.91;;;24.21;31.84
13581;BME280;6861;46.170;7.222;2022-09-20T10:52:37;96199.97;;;24.23;31.80
13581;BME280;6861;46.170;7.222;2022-09-20T10:55:20;96196.16;;;24.24;31.86
13581;BME280;6861;46.170;7.222;2022-09-20T11:00:57;96187.88;;;24.29;31.79
13581;BME280;6861;46.170;7.222;2022-09-20T11:03:37;96183.38;;;24.33;31.85
13581;BME280;6861;46.170;7.222;2022-09-20T11:06:14;96186.84;;;24.33;31.86
13581;BME280;6861;46.170;7.222;2022-09-20T11:08:46;96174.94;;;24.31;31.98
13581;BME280;6861;46.170;7.222;2022-09-20T11:11:19;96176.69;;;24.23;31.89
13581;BME280;6861;46.170;7.222;2022-09-20T11:13:56;96179.19;;;24.16;31.67
13581;BME280;6861;46.170;7.222;2022-09-20T11:16:27;96177.81;;;24.06;31.94
13581;BME280;6861;46.170;7.222;2022-09-20T11:19:01;96163.31;;;23.92;32.31
13581;BME280;6861;46.170;7.222;2022-09-20T11:21:37;96171.75;;;23.78;32.51
13581;BME280;6861;46.170;7.222;2022-09-20T11:24:13;96161.25;;;23.69;31.94
13581;BME280;6861;46.170;7.222;2022-09-20T11:26:48;96166.31;;;23.59;31.98
13581;BME280;6861;46.170;7.222;2022-09-20T11:29:22;96168.00;;;23.51;32.38
13581;BME280;6861;46.170;7.222;2022-09-20T11:31:52;96155.91;;;23.41;32.78
13581;BME280;6861;46.170;7.222;2022-09-20T11:34:26;96149.56;;;23.30;32.74
13581;BME280;6861;46.170;7.222;2022-09-20T11:36:58;96155.38;;;23.20;32.54
13581;BME280;6861;46.170;7.222;2022-09-20T11:39:32;96148.28;;;23.12;33.07
13581;BME280;6861;46.170;7.222;2022-09-20T11:42:02;96137.00;;;23.03;33.22
13581;BME280;6861;46.170;7.222;2022-09-20T11:44:30;96135.69;;;22.97;33.28
13581;BME280;6861;46.170;7.222;2022-09-20T11:47:01;96147.38;;;22.92;33.19
13581;BME280;6861;46.170;7.222;2022-09-20T11:49:36;96150.19;;;22.83;33.67
13581;BME280;6861;46.170;7.222;2022-09-20T11:52:43;96120.59;;;22.76;33.71
13581;BME280;6861;46.170;7.222;2022-09-20T11:55:24;96122.63;;;22.67;33.57
13581;BME280;6861;46.170;7.222;2022-09-20T11:58:03;96121.75;;;22.63;33.48
13581;BME280;6861;46.170;7.222;2022-09-20T12:00:34;96109.53;;;22.62;33.40
13581;BME280;6861;46.170;7.222;2022-09-20T12:03:04;96102.63;;;22.61;32.71
13581;BME280;6861;46.170;7.222;2022-09-20T12:05:35;96106.41;;;22.60;32.92
13581;BME280;6861;46.170;7.222;2022-09-20T12:08:07;96110.63;;;22.61;32.85
13581;BME280;6861;46.170;7.222;2022-09-20T12:10:37;96099.63;;;22.63;33.50
13581;BME280;6861;46.170;7.222;2022-09-20T12:13:15;96095.84;;;22.64;33.05
13581;BME280;6861;46.170;7.222;2022-09-20T12:15:56;96085.94;;;22.64;33.32
13581;BME280;6861;46.170;7.222;2022-09-20T12:18:37;96095.94;;;22.67;33.29
13581;BME280;6861;46.170;7.222;2022-09-20T12:21:13;96089.16;;;22.70;33.32
13581;BME280;6861;46.170;7.222;2022-09-20T12:26:44;96081.06;;;22.66;32.88
13581;BME280;6861;46.170;7.222;2022-09-20T12:32:49;96067.81;;;22.70;33.09
13581;BME280;6861;46.170;7.222;2022-09-20T12:38:27;96062.56;;;22.73;32.40
13581;BME280;6861;46.170;7.222;2022-09-20T12:41:00;96051.91;;;22.73;32.40
13581;BME280;6861;46.170;7.222;2022-09-20T12:43:31;96055.69;;;22.72;32.00
13581;BME280;6861;46.170;7.222;2022-09-20T12:45:58;96048.81;;;22.71;32.26
13581;BME280;6861;46.170;7.222;2022-09-20T12:48:27;96057.91;;;22.70;32.46
13581;BME280;6861;46.170;7.222;2022-09-20T12:51:02;96051.03;;;22.69;32.60
13581;BME280;6861;46.170;7.222;2022-09-20T12:54:01;96048.81;;;22.71;32.85
13581;BME280;6861;46.170;7.222;2022-09-20T12:56:32;96035.13;;;22.73;32.39
13581;BME280;6861;46.170;7.222;2022-09-20T12:59:03;96055.25;;;22.70;32.78
13581;BME280;6861;46.170;7.222;2022-09-20T13:01:37;96044.38;;;22.63;32.97
13581;BME280;6861;46.170;7.222;2022-09-20T13:04:39;96037.75;;;22.57;32.92
13581;BME280;6861;46.170;7.222;2022-09-20T13:07:28;96033.09;;;22.54;33.63
13581;BME280;6861;46.170;7.222;2022-09-20T13:10:00;96024.69;;;22.52;33.31
13581;BME280;6861;46.170;7.222;2022-09-20T13:12:29;96017.78;;;22.51;33.78
13581;BME280;6861;46.170;7.222;2022-09-20T13:14:58;96034.81;;;22.46;33.43
13581;BME280;6861;46.170;7.222;2022-09-20T13:17:26;96010.28;;;22.41;34.07
13581;BME280;6861;46.170;7.222;2022-09-20T13:19:56;96020.50;;;22.39;33.37
13581;BME280;6861;46.170;7.222;2022-09-20T13:22:25;95998.06;;;22.40;33.43
13581;BME280;6861;46.170;7.222;2022-09-20T13:24:57;96008.28;;;22.38;33.42
13581;BME280;6861;46.170;7.222;2022-09-20T13:27:29;96012.94;;;22.41;33.39
13581;BME280;6861;46.170;7.222;2022-09-20T13:30:15;96015.59;;;22.41;33.73
13581;BME280;6861;46.170;7.222;2022-09-20T13:32:43;96016.03;;;22.43;33.68
13581;BME280;6861;46.170;7.222;2022-09-20T13:35:14;96015.38;;;22.46;33.98
13581;BME280;6861;46.170;7.222;2022-09-20T13:37:49;96010.81;;;22.46;34.40
13581;BME280;6861;46.170;7.222;2022-09-20T13:40:18;96006.94;;;22.44;33.88
13581;BME280;6861;46.170;7.222;2022-09-20T13:42:47;95987.06;;;22.41;34.56
13581;BME280;6861;46.170;7.222;2022-09-20T13:45:17;96000.72;;;22.40;34.44
13581;BME280;6861;46.170;7.222;2022-09-20T13:47:48;95978.97;;;22.38;34.70
13581;BME280;6861;46.170;7.222;2022-09-20T13:50:20;95996.25;;;22.44;34.87
13581;BME280;6861;46.170;7.222;2022-09-20T13:52:50;95994.03;;;22.46;34.40
13581;BME280;6861;46.170;7.222;2022-09-20T13:55:27;95983.38;;;22.46;34.63
13581;BME280;6861;46.170;7.222;2022-09-20T13:57:56;95992.47;;;22.45;34.19
13581;BME280;6861;46.170;7.222;2022-09-20T14:00:26;95982.50;;;22.42;34.04
13581;BME280;6861;46.170;7.222;2022-09-20T14:02:54;95997.72;;;22.41;34.01
13581;BME280;6861;46.170;7.222;2022-09-20T14:05:24;95990.06;;;22.40;34.26
13581;BME280;6861;46.170;7.222;2022-09-20T14:07:51;95980.50;;;22.39;34.02
13581;BME280;6861;46.170;7.222;2022-09-20T14:10:31;95980.06;;;22.37;34.32
13581;BME280;6861;46.170;7.222;2022-09-20T14:12:59;95967.84;;;22.36;33.88
13581;BME280;6861;46.170;7.222;2022-09-20T14:15:33;95978.09;;;22.34;34.02
13581;BME280;6861;46.170;7.222;2022-09-20T14:18:01;95970.84;;;22.34;34.33
13581;BME280;6861;46.170;7.222;2022-09-20T14:20:31;95975.41;;;22.34;34.37
13581;BME280;6861;46.170;7.222;2022-09-20T14:22:59;95976.97;;;22.35;33.68
13581;BME280;6861;46.170;7.222;2022-09-20T14:25:27;95976.19;;;22.34;34.00
13581;BME280;6861;46.170;7.222;2022-09-20T14:28:05;95982.75;;;22.37;34.19
13581;BME280;6861;46.170;7.222;2022-09-20T14:30:35;95979.28;;;22.36;33.88
13581;BME280;6861;46.170;7.222;2022-09-20T14:33:04;95982.41;;;22.38;33.87
13581;BME280;6861;46.170;7.222;2022-09-20T14:35:32;95985.50;;;22.40;34.55
13581;BME280;6861;46.170;7.222;2022-09-20T14:38:04;95984.03;;;22.43;33.91